Flight Track Log - Related Links

Times and Time Zones

All times are in EDT time to prevent confusion due to time zone crossing. See the AFR1390 flight status page for this flight to view local times or setup timezone preferences in your user account.

Time Position Orientation Groundspeed Altitude Reporting Facility
EDT Latitude Longitude Course Direction KTS MPH feet Rate Location/Type
Sat 12:47:49 PM 49.0020 2.5840 87° East  Level FlightAware ADS-B
Sat 01:00:00 PM 48.9564 2.8733 104° East  Level Estimated
Sat 01:00:58 PM 49.0000 2.5830 104° East 14 16  Level FlightAware ADS-B
Sat 01:01:00 PM 48.9290 3.0422 104° East  Level Estimated
Sat 01:01:13 PM 48.9990 2.5830 180° South 14 16  Level FlightAware ADS-B
Sat 01:01:27 PM 48.9990 2.5810 270° West 17 20 194 Level FlightAware ADS-B
Sat 01:01:42 PM 48.9990 2.5800 270° West 14 16 203 Level FlightAware ADS-B
Sat 01:02:13 PM 48.9990 2.5770 270° West 17 20 214 Level FlightAware ADS-B
Sat 01:02:27 PM 48.9990 2.5750 270° West 21 24 241 Level FlightAware ADS-B
Sat 01:02:57 PM 48.9990 2.5700 270° West 22 25 255 Level FlightAware ADS-B
Sat 01:03:38 PM 48.9980 2.5640 256° West 23 26 293 Level FlightAware ADS-B
Sat 01:03:47 PM 48.9980 2.5630 270° West 7 8 366 Level FlightAware ADS-B
Sat 01:04:20 PM 48.9970 2.5630 180° South 12 14 387 Level FlightAware ADS-B
Sat 01:05:32 PM 48.9970 2.5700 90° East 84 97 492 Level FlightAware ADS-B
Sat 01:05:57 PM 48.9980 2.5920 86° East 170 196 1,200 Level FlightAware ADS-B
Sat 01:06:22 PM 48.9990 2.6230 87° East 171 197 1,000 2,353 Climbing FlightAware ADS-B
Sat 01:06:48 PM 49.0010 2.6530 84° East 172 198 2,000 2,100 Climbing FlightAware ADS-B
Sat 01:07:02 PM 49.0020 2.6710 85° East 175 201 2,400 1,909 Climbing FlightAware ADS-B
Sat 01:07:32 PM 49.0040 2.7080 85° East 178 205 3,400 1,400 Climbing FlightAware ADS-B
Sat 01:08:02 PM 49.0060 2.7490 86° East 212 244 3,800 913 Climbing FlightAware ADS-B
Sat 01:08:18 PM 49.0070 2.7740 87° East 235 270 4,100 1,733 Climbing FlightAware ADS-B
Sat 01:08:47 PM 49.0020 2.8270 98° East 260 299 5,100 2,339 Climbing FlightAware ADS-B
Sat 01:09:17 PM 48.9960 2.8820 99° East 267 307 6,400 2,656 Climbing FlightAware ADS-B
Sat 01:09:48 PM 48.9910 2.9360 98° East 270 311 7,800 2,509 Climbing FlightAware ADS-B
Sat 01:10:12 PM 48.9860 2.9860 99° East 280 322 8,700 2,449 Climbing FlightAware ADS-B
Sat 01:10:37 PM 48.9820 3.0350 97° East 284 327 9,800 1,537 Climbing FlightAware ADS-B
Sat 01:11:34 PM 48.9740 3.1270 98° East 317 365 10,800 1,592 Climbing FlightAware ADS-B
Sat 01:12:15 PM 48.9640 3.2490 97° East 342 394 12,400 2,196 Climbing FlightAware ADS-B
Sat 01:13:26 PM 48.9490 3.4220 97° East 360 414 14,900 2,054 Climbing FlightAware ADS-B
Sat 01:14:06 PM 48.9400 3.5250 98° East 367 422 16,200 1,926 Climbing FlightAware ADS-B
Sat 01:14:47 PM 48.9340 3.6290 95° East 373 429 17,500 1,870 Climbing FlightAware ADS-B
Sat 01:15:23 PM 48.9290 3.7270 94° East 379 436 18,600 1,769 Climbing FlightAware ADS-B
Sat 01:16:05 PM 48.9220 3.8430 95° East 390 449 19,800 1,622 Climbing FlightAware ADS-B
Sat 01:16:37 PM 48.9120 3.9280 100° East 397 457 20,600 1,343 Climbing FlightAware ADS-B
Sat 01:17:12 PM 48.8880 4.0210 111° Southeast 409 471 21,300 1,397 Climbing FlightAware ADS-B
Sat 01:17:50 PM 48.8650 4.1160 110° East 414 476 22,300 1,519 Climbing FlightAware ADS-B
Sat 01:18:31 PM 48.8350 4.2390 110° East 420 483 23,300 1,373 Climbing FlightAware ADS-B
Sat 01:19:13 PM 48.8060 4.3540 111° Southeast 428 493 24,200 1,271 Climbing FlightAware ADS-B
Sat 01:19:56 PM 48.7740 4.4810 111° Southeast 434 499 25,100 1,213 Climbing FlightAware ADS-B
Sat 01:20:42 PM 48.7420 4.6100 111° Southeast 440 506 26,000 1,143 Climbing FlightAware ADS-B
Sat 01:21:20 PM 48.7140 4.7190 111° Southeast 445 512 26,700 1,063 Climbing FlightAware ADS-B
Sat 01:22:01 PM 48.6860 4.8310 111° Southeast 449 517 27,400 1,050 Climbing FlightAware ADS-B
Sat 01:22:40 PM 48.6550 4.9520 111° Southeast 454 522 28,100 1,012 Climbing FlightAware ADS-B
Sat 01:23:24 PM 48.6200 5.0860 112° Southeast 460 529 28,800 933 Climbing FlightAware ADS-B
Sat 01:24:10 PM 48.5850 5.2220 111° Southeast 465 535 29,500 1,133 Climbing FlightAware ADS-B
Sat 01:24:54 PM 48.5500 5.3550 112° Southeast 460 529 30,500 1,286 Climbing FlightAware ADS-B
Sat 01:25:34 PM 48.5190 5.4740 111° Southeast 456 525 31,300 1,185 Climbing FlightAware ADS-B
Sat 01:26:15 PM 48.4870 5.5970 111° Southeast 452 520 32,100 1,012 Climbing FlightAware ADS-B
Sat 01:26:57 PM 48.4560 5.7130 112° Southeast 453 521 32,700 1,047 Climbing FlightAware ADS-B
Sat 01:27:41 PM 48.4210 5.8460 112° Southeast 448 516 33,600 929 Climbing FlightAware ADS-B
Sat 01:28:21 PM 48.3910 5.9570 112° Southeast 450 518 34,000 769 Climbing FlightAware ADS-B
Sat 01:28:59 PM 48.3610 6.0670 112° Southeast 448 516 34,600 692 Climbing FlightAware ADS-B
Sat 01:29:39 PM 48.3300 6.1840 112° Southeast 451 519 34,900 353 Climbing FlightAware ADS-B
Sat 01:30:07 PM 48.3070 6.2660 113° Southeast 456 525 35,000 86 Climbing FlightAware ADS-B
Sat 01:30:49 PM 48.2730 6.3910 112° Southeast 463 533 35,000  Level FlightAware ADS-B
Sat 01:31:29 PM 48.2410 6.5100 112° Southeast 461 531 35,000  Level FlightAware ADS-B
Sat 01:32:13 PM 48.2050 6.6380 113° Southeast 461 531 35,000  Level FlightAware ADS-B
Sat 01:32:52 PM 48.1740 6.7530 112° Southeast 463 533 35,000  Level FlightAware ADS-B
Sat 01:33:38 PM 48.1360 6.8890 113° Southeast 465 535 35,000  Level FlightAware ADS-B
Sat 01:34:22 PM 48.0990 7.0210 113° Southeast 466 536 35,000  Level FlightAware ADS-B
Sat 01:35:11 PM 48.0580 7.1650 113° Southeast 465 535 35,000  Level FlightAware ADS-B
Sat 01:35:56 PM 48.0210 7.2970 113° Southeast 465 535 35,000  Level FlightAware ADS-B
Sat 01:36:36 PM 47.9880 7.4140 113° Southeast 462 532 35,000  Level FlightAware ADS-B
Sat 01:37:21 PM 47.9490 7.5490 113° Southeast 463 533 35,000  Level FlightAware ADS-B
Sat 01:37:56 PM 47.9200 7.6500 113° Southeast 465 535 35,000  Level FlightAware ADS-B
Sat 01:38:51 PM 47.8800 7.8190 109° East 464 534 35,000  Level FlightAware ADS-B
Sat 01:39:31 PM 47.8550 7.9380 107° East 462 532 35,000  Level FlightAware ADS-B
Sat 01:40:16 PM 47.8250 8.0770 108° East 462 532 35,000  Level FlightAware ADS-B
Sat 01:40:56 PM 47.8000 8.1930 108° East 463 533 35,000  Level FlightAware ADS-B
Sat 01:41:41 PM 47.7690 8.3350 108° East 468 539 35,000  Level FlightAware ADS-B
Sat 01:42:21 PM 47.7440 8.4500 108° East 469 540 35,000  Level FlightAware ADS-B
Sat 01:43:01 PM 47.7170 8.5770 107° East 472 543 35,000  Level FlightAware ADS-B
Sat 01:43:31 PM 47.6960 8.6710 108° East 474 545 35,000  Level FlightAware ADS-B
Sat 01:44:16 PM 47.6650 8.8100 108° East 474 545 35,000  Level FlightAware ADS-B
Sat 01:44:56 PM 47.6370 8.9350 108° East 475 547 35,000  Level FlightAware ADS-B
Sat 01:45:31 PM 47.6130 9.0410 109° East 474 545 35,000  Level FlightAware ADS-B
Sat 01:46:21 PM 47.5780 9.1970 108° East 471 542 35,000  Level FlightAware ADS-B
Sat 01:47:01 PM 47.5510 9.3160 109° East 470 541 35,000  Level FlightAware ADS-B
Sat 01:47:41 PM 47.5230 9.4380 109° East 468 539 35,000  Level FlightAware ADS-B
Sat 01:48:26 PM 47.4920 9.5760 108° East 466 536 35,000  Level FlightAware ADS-B
Sat 01:49:11 PM 47.4600 9.7110 109° East 468 539 35,000  Level FlightAware ADS-B
Sat 01:49:46 PM 47.4360 9.8170 108° East 469 540 35,000  Level FlightAware ADS-B
Sat 01:50:26 PM 47.4130 9.9430 105° East 469 540 35,000  Level FlightAware ADS-B
Sat 01:51:08 PM 47.3940 10.0660 103° East 470 541 35,000  Level FlightAware ADS-B
Sat 01:51:46 PM 47.3740 10.1920 103° East 470 541 35,000  Level FlightAware ADS-B
Sat 01:52:26 PM 47.3550 10.3120 103° East 468 539 35,000  Level FlightAware ADS-B
Sat 01:53:05 PM 47.3340 10.4430 103° East 468 539 35,000  Level FlightAware ADS-B
Sat 01:53:46 PM 47.3140 10.5680 103° East 469 540 35,000  Level FlightAware ADS-B
Sat 01:54:27 PM 47.2930 10.6940 104° East 471 542 35,000  Level FlightAware ADS-B
Sat 01:55:09 PM 47.2730 10.8200 103° East 475 547 35,000 83 Level FlightAware ADS-B
Sat 01:55:39 PM 47.2570 10.9140 104° East 473 544 35,100  Climbing FlightAware ADS-B
Sat 01:56:22 PM 47.2340 11.0550 103° East 473 544 35,000 -72 Descending FlightAware ADS-B
Sat 01:57:02 PM 47.2130 11.1800 104° East 473 544 35,000  Level FlightAware ADS-B
Sat 01:57:52 PM 47.1870 11.3350 104° East 475 547 35,000  Level FlightAware ADS-B
Sat 01:58:37 PM 47.1630 11.4780 104° East 478 550 35,000  Level FlightAware ADS-B
Sat 01:59:07 PM 47.1470 11.5690 104° East 477 549 35,000  Level FlightAware ADS-B
Sat 01:59:37 PM 47.1310 11.6630 104° East 476 548 35,000  Level FlightAware ADS-B
Sat 02:00:48 PM 47.0880 11.8370 110° East 474 545 35,000  Level FlightAware ADS-B
Sat 02:01:24 PM 47.0410 11.9790 116° Southeast 478 550 35,000  Level FlightAware ADS-B
Sat 02:02:04 PM 47.0020 12.0990 115° Southeast 480 552 35,000  Level FlightAware ADS-B
Sat 02:02:49 PM 46.9590 12.2250 117° Southeast 479 551 35,000  Level FlightAware ADS-B
Sat 02:03:29 PM 46.9190 12.3450 116° Southeast 481 554 35,000  Level FlightAware ADS-B
Sat 02:04:10 PM 46.8800 12.4620 116° Southeast 482 555 35,000  Level FlightAware ADS-B
Sat 02:04:54 PM 46.8360 12.5900 117° Southeast 483 556 35,000  Level FlightAware ADS-B
Sat 02:05:40 PM 46.7930 12.7150 117° Southeast 481 554 35,000  Level FlightAware ADS-B
Sat 02:06:14 PM 46.7550 12.8260 117° Southeast 481 554 35,000  Level FlightAware ADS-B
Sat 02:07:00 PM 46.7110 12.9560 116° Southeast 482 555 35,000  Level FlightAware ADS-B
Sat 02:07:44 PM 46.6650 13.0890 117° Southeast 482 555 35,000  Level FlightAware ADS-B
Sat 02:08:24 PM 46.6250 13.2030 117° Southeast 485 558 35,000  Level FlightAware ADS-B
Sat 02:09:05 PM 46.5840 13.3220 117° Southeast 486 559 35,000  Level FlightAware ADS-B
Sat 02:09:51 PM 46.5400 13.4560 115° Southeast 491 565 35,000  Level FlightAware ADS-B
Sat 02:10:24 PM 46.5080 13.5630 113° Southeast 489 563 35,000  Level FlightAware ADS-B
Sat 02:11:31 PM 46.4540 13.7420 114° Southeast 491 565 35,000  Level FlightAware ADS-B
Sat 02:12:11 PM 46.4090 13.8850 114° Southeast 493 567 35,000  Level FlightAware ADS-B
Sat 02:12:49 PM 46.3740 13.9960 115° Southeast 490 564 35,000  Level FlightAware ADS-B
Sat 02:13:34 PM 46.3320 14.1320 114° Southeast 491 565 35,000  Level FlightAware ADS-B
Sat 02:14:14 PM 46.2930 14.2540 115° Southeast 490 564 35,000  Level FlightAware ADS-B
Sat 02:14:49 PM 46.2620 14.3530 114° Southeast 490 564 35,000  Level FlightAware ADS-B
Sat 02:15:34 PM 46.2180 14.4920 115° Southeast 489 563 35,000  Level FlightAware ADS-B
Sat 02:16:09 PM 46.1850 14.5960 115° Southeast 489 563 35,000  Level FlightAware ADS-B
Sat 02:16:49 PM 46.1470 14.7160 115° Southeast 492 566 35,000  Level FlightAware ADS-B
Sat 02:17:34 PM 46.1070 14.8510 113° Southeast 492 566 35,000  Level FlightAware ADS-B
Sat 02:18:19 PM 46.0780 14.9880 107° East 496 571 35,000  Level FlightAware ADS-B
Sat 02:18:58 PM 46.0530 15.1150 106° East 497 572 35,000  Level FlightAware ADS-B
Sat 02:19:39 PM 46.0270 15.2400 107° East 498 573 35,000  Level FlightAware ADS-B
Sat 02:20:19 PM 46.0000 15.3740 106° East 498 573 35,000  Level FlightAware ADS-B
Sat 02:20:59 PM 45.9740 15.5020 106° East 499 574 35,000  Level FlightAware ADS-B
Sat 02:21:39 PM 45.9480 15.6280 106° East 498 573 35,000  Level FlightAware ADS-B
Sat 02:22:19 PM 45.9230 15.7480 107° East 497 572 35,000  Level FlightAware ADS-B
Sat 02:23:00 PM 45.8960 15.8760 107° East 499 574 35,000  Level FlightAware ADS-B
Sat 02:23:40 PM 45.8710 15.9980 106° East 497 572 35,000  Level FlightAware ADS-B
Sat 02:24:19 PM 45.8440 16.1270 107° East 496 571 35,000  Level FlightAware ADS-B
Sat 02:24:59 PM 45.8160 16.2550 107° East 494 568 35,000  Level FlightAware ADS-B
Sat 02:25:39 PM 45.7900 16.3800 107° East 492 566 35,000  Level FlightAware ADS-B
Sat 02:26:19 PM 45.7630 16.5030 107° East 492 566 35,000  Level FlightAware ADS-B
Sat 02:27:00 PM 45.7360 16.6300 107° East 491 565 35,000  Level FlightAware ADS-B
Sat 02:27:41 PM 45.7080 16.7560 108° East 491 565 35,000  Level FlightAware ADS-B
Sat 02:28:21 PM 45.6820 16.8760 107° East 493 567 35,000  Level FlightAware ADS-B
Sat 02:29:06 PM 45.6500 17.0200 108° East 494 568 35,000  Level FlightAware ADS-B
Sat 02:29:45 PM 45.6220 17.1460 108° East 495 570 35,000  Level FlightAware ADS-B
Sat 02:30:31 PM 45.5920 17.2830 107° East 497 572 35,000  Level FlightAware ADS-B
Sat 02:31:11 PM 45.5630 17.4110 108° East 499 574 35,000  Level FlightAware ADS-B
Sat 02:31:51 PM 45.5340 17.5390 108° East 501 577 35,000  Level FlightAware ADS-B
Sat 02:32:36 PM 45.5020 17.6790 108° East 502 578 35,000  Level FlightAware ADS-B
Sat 02:33:20 PM 45.4700 17.8200 108° East 501 577 35,000  Level FlightAware ADS-B
Sat 02:33:49 PM 45.4490 17.9090 109° East 499 574 35,000  Level FlightAware ADS-B
Sat 02:34:40 PM 45.4130 18.0670 108° East 497 572 35,000  Level FlightAware ADS-B
Sat 02:35:20 PM 45.3830 18.1940 109° East 499 574 35,000  Level FlightAware ADS-B
Sat 02:36:06 PM 45.3500 18.3350 108° East 501 577 35,000  Level FlightAware ADS-B
Sat 02:36:46 PM 45.3200 18.4620 109° East 499 574 35,000  Level FlightAware ADS-B
Sat 02:37:26 PM 45.2800 18.5770 116° Southeast 500 575 35,000  Level FlightAware ADS-B
Sat 02:38:01 PM 45.2420 18.6780 118° Southeast 495 570 35,000  Level FlightAware ADS-B
Sat 02:38:46 PM 45.1920 18.8070 119° Southeast 500 575 35,000  Level FlightAware ADS-B
Sat 02:39:28 PM 45.1500 18.9170 118° Southeast 501 577 35,000  Level FlightAware ADS-B
Sat 02:40:11 PM 45.0980 19.0510 119° Southeast 500 575 35,000  Level FlightAware ADS-B
Sat 02:40:51 PM 45.0520 19.1670 119° Southeast 499 574 35,000  Level FlightAware ADS-B
Sat 02:41:36 PM 45.0010 19.2960 119° Southeast 499 574 35,000  Level FlightAware ADS-B
Sat 02:42:16 PM 44.9570 19.4070 119° Southeast 497 572 35,000  Level FlightAware ADS-B
Sat 02:42:59 PM 44.9100 19.5230 120° Southeast 501 577 35,000  Level FlightAware ADS-B
Sat 02:43:45 PM 44.8550 19.6600 119° Southeast 499 574 35,000  Level FlightAware ADS-B
Sat 02:44:21 PM 44.8130 19.7640 120° Southeast 502 578 35,000  Level FlightAware ADS-B
Sat 02:45:06 PM 44.7630 19.8860 120° Southeast 503 579 35,000  Level FlightAware ADS-B
Sat 02:45:51 PM 44.7080 20.0230 119° Southeast 503 579 35,000  Level FlightAware ADS-B
Sat 02:46:25 PM 44.6700 20.1170 120° Southeast 502 578 35,000  Level FlightAware ADS-B
Sat 02:47:03 PM 44.6230 20.2320 120° Southeast 504 580 35,000  Level FlightAware ADS-B
Sat 02:47:51 PM 44.5700 20.3660 119° Southeast 501 577 35,000  Level FlightAware ADS-B
Sat 02:48:27 PM 44.5280 20.4690 120° Southeast 501 577 35,000  Level FlightAware ADS-B
Sat 02:49:06 PM 44.4840 20.5780 119° Southeast 501 577 35,000  Level FlightAware ADS-B
Sat 02:49:49 PM 44.4350 20.6960 120° Southeast 504 580 35,000  Level FlightAware ADS-B
Sat 02:50:21 PM 44.3960 20.7880 121° Southeast 506 582 35,000  Level FlightAware ADS-B
Sat 02:51:07 PM 44.3400 20.9190 121° Southeast 505 581 35,000  Level FlightAware ADS-B
Sat 02:51:47 PM 44.2940 21.0270 121° Southeast 504 580 35,000  Level FlightAware ADS-B
Sat 02:52:23 PM 44.2510 21.1270 121° Southeast 502 578 35,000  Level FlightAware ADS-B
Sat 02:53:03 PM 44.2030 21.2390 121° Southeast 500 575 35,000  Level FlightAware ADS-B
Sat 02:53:47 PM 44.1500 21.3620 121° Southeast 497 572 35,000  Level FlightAware ADS-B
Sat 02:54:31 PM 44.1000 21.4780 121° Southeast 496 571 35,000  Level FlightAware ADS-B
Sat 02:55:11 PM 44.0530 21.5870 121° Southeast 494 568 35,000  Level FlightAware ADS-B
Sat 02:55:53 PM 44.0020 21.7020 122° Southeast 493 567 35,000  Level FlightAware ADS-B
Sat 02:56:37 PM 43.9500 21.8220 121° Southeast 494 568 35,000  Level FlightAware ADS-B
Sat 02:57:11 PM 43.9090 21.9150 121° Southeast 496 571 35,000  Level FlightAware ADS-B
Sat 02:57:55 PM 43.8570 22.0320 122° Southeast 496 571 35,000  Level FlightAware ADS-B
Sat 02:58:33 PM 43.8120 22.1350 121° Southeast 495 570 35,000  Level FlightAware ADS-B
Sat 02:59:11 PM 43.7650 22.2400 122° Southeast 493 567 35,000  Level FlightAware ADS-B
Sat 02:59:52 PM 43.7180 22.3470 121° Southeast 491 565 35,000  Level FlightAware ADS-B
Sat 03:00:35 PM 43.6700 22.4660 119° Southeast 491 565 35,000  Level FlightAware ADS-B
Sat 03:01:15 PM 43.6250 22.5750 120° Southeast 491 565 35,000  Level FlightAware ADS-B
Sat 03:01:55 PM 43.5800 22.6850 119° Southeast 492 566 35,000  Level FlightAware ADS-B
Sat 03:02:39 PM 43.5310 22.8030 120° Southeast 492 566 35,000  Level FlightAware ADS-B
Sat 03:03:21 PM 43.4830 22.9200 119° Southeast 493 567 35,000  Level FlightAware ADS-B
Sat 03:03:59 PM 43.4400 23.0230 120° Southeast 490 564 35,000  Level FlightAware ADS-B
Sat 03:04:39 PM 43.3960 23.1290 120° Southeast 490 564 35,000  Level FlightAware ADS-B
Sat 03:05:23 PM 43.3470 23.2450 120° Southeast 487 560 35,000  Level FlightAware ADS-B
Sat 03:05:59 PM 43.3060 23.3420 120° Southeast 486 559 35,000  Level FlightAware ADS-B
Sat 03:06:43 PM 43.2580 23.4580 120° Southeast 487 560 35,000  Level FlightAware ADS-B
Sat 03:07:21 PM 43.2130 23.5640 120° Southeast 487 560 35,000  Level FlightAware ADS-B
Sat 03:08:05 PM 43.1640 23.6800 120° Southeast 488 562 35,000  Level FlightAware ADS-B
Sat 03:08:51 PM 43.1120 23.8010 120° Southeast 488 562 35,000  Level FlightAware ADS-B
Sat 03:09:26 PM 43.0740 23.8890 121° Southeast 488 562 35,000  Level FlightAware ADS-B
Sat 03:10:07 PM 43.0270 23.9980 121° Southeast 488 562 35,000  Level FlightAware ADS-B
Sat 03:10:49 PM 42.9770 24.1140 120° Southeast 487 560 35,000  Level FlightAware ADS-B
Sat 03:11:31 PM 42.9360 24.2100 120° Southeast 486 559 35,000  Level FlightAware ADS-B
Sat 03:12:14 PM 42.8820 24.3330 121° Southeast 487 560 35,000  Level FlightAware ADS-B
Sat 03:12:55 PM 42.8360 24.4390 121° Southeast 487 560 35,000  Level FlightAware ADS-B
Sat 03:13:42 PM 42.7800 24.5660 121° Southeast 487 560 35,000  Level FlightAware ADS-B
Sat 03:14:22 PM 42.7330 24.6740 121° Southeast 487 560 35,000  Level FlightAware ADS-B
Sat 03:15:02 PM 42.6860 24.7800 121° Southeast 487 560 35,000  Level FlightAware ADS-B
Sat 03:15:47 PM 42.6360 24.8950 121° Southeast 489 563 35,000  Level FlightAware ADS-B
Sat 03:16:24 PM 42.5950 24.9870 121° Southeast 492 566 35,000  Level FlightAware ADS-B
Sat 03:17:10 PM 42.5410 25.1070 121° Southeast 494 568 35,000  Level FlightAware ADS-B
Sat 03:17:51 PM 42.4890 25.2230 121° Southeast 493 567 35,000  Level FlightAware ADS-B
Sat 03:18:34 PM 42.4380 25.3370 121° Southeast 492 566 35,000  Level FlightAware ADS-B
Sat 03:19:15 PM 42.3900 25.4440 121° Southeast 491 565 35,000  Level FlightAware ADS-B
Sat 03:19:58 PM 42.3380 25.5580 122° Southeast 491 565 35,000  Level FlightAware ADS-B
Sat 03:20:40 PM 42.2880 25.6680 122° Southeast 490 564 35,000  Level FlightAware ADS-B
Sat 03:21:31 PM 42.2280 25.8000 122° Southeast 490 564 35,000  Level FlightAware ADS-B
Sat 03:22:12 PM 42.1810 25.9020 122° Southeast 490 564 35,000  Level FlightAware ADS-B
Sat 03:22:51 PM 42.1320 26.0080 122° Southeast 490 564 35,000  Level FlightAware ADS-B
Sat 03:23:36 PM 42.0820 26.1170 122° Southeast 487 560 35,000  Level FlightAware ADS-B
Sat 03:24:11 PM 42.0420 26.2040 122° Southeast 487 560 35,000  Level FlightAware ADS-B
Sat 03:24:51 PM 41.9900 26.3150 122° Southeast 487 560 35,000 -488 Level FlightAware ADS-B
Sat 03:25:37 PM 41.9360 26.4320 122° Southeast 481 554 34,300 -1,256 Descending FlightAware ADS-B
Sat 03:26:17 PM 41.8910 26.5270 122° Southeast 474 545 33,200 -975 Descending FlightAware ADS-B
Sat 03:26:57 PM 41.8400 26.6310 123° Southeast 489 563 33,000 -146 Descending FlightAware ADS-B
Sat 03:27:39 PM 41.7860 26.7350 125° Southeast 491 565 33,000  Level FlightAware ADS-B
Sat 03:28:24 PM 41.7290 26.8450 125° Southeast 491 565 33,000  Level FlightAware ADS-B
Sat 03:28:59 PM 41.6820 26.9360 125° Southeast 490 564 33,000  Level FlightAware ADS-B
Sat 03:29:44 PM 41.6240 27.0460 125° Southeast 490 564 33,000 -408 Level FlightAware ADS-B
Sat 03:30:42 PM 41.5490 27.1910 125° Southeast 465 535 32,300 -911 Descending FlightAware ADS-B
Sat 03:31:36 PM 41.4850 27.3120 125° Southeast 455 524 31,300 -1,576 Descending FlightAware ADS-B
Sat 03:32:21 PM 41.4340 27.4080 125° Southeast 425 489 29,700 -1,953 Descending FlightAware ADS-B
Sat 03:33:02 PM 41.3860 27.4900 128° Southeast 412 474 28,500 -1,607 Descending FlightAware ADS-B
Sat 03:33:17 PM 41.3640 27.5080 148° Southeast 387 445 28,200 -429 Descending FlightAware ADS-B
Sat 03:34:12 PM 41.2700 27.5170 176° South 374 430 28,000 -125 Descending FlightAware ADS-B
Sat 03:34:53 PM 41.1950 27.5160 181° South 371 427 28,000  Level FlightAware ADS-B
Sat 03:35:37 PM 41.1160 27.5160 180° South 372 428 28,000  Level FlightAware ADS-B
Sat 03:36:17 PM 41.0470 27.5420 164° South 395 455 28,000  Level FlightAware ADS-B
Sat 03:36:32 PM 41.0290 27.5670 134° Southeast 404 465 28,000 -536 Level FlightAware ADS-B
Sat 03:37:13 PM 40.9960 27.6590 115° Southeast 410 472 27,500 -847 Descending FlightAware ADS-B
Sat 03:37:57 PM 41.0030 27.7670 85° East 409 471 26,800 -911 Descending FlightAware ADS-B
Sat 03:38:32 PM 41.0190 27.8490 75° East 407 468 26,300 -907 Descending FlightAware ADS-B
Sat 03:39:23 PM 41.0410 27.9660 76° East 402 463 25,500 -1,059 Descending FlightAware ADS-B
Sat 03:39:57 PM 41.0570 28.0530 76° East 390 449 24,800 -1,120 Descending FlightAware ADS-B
Sat 03:40:38 PM 41.0840 28.1390 67° East 368 423 24,100 -1,011 Descending FlightAware ADS-B
Sat 03:41:32 PM 41.1300 28.2380 58° Northeast 344 396 23,200 -1,277 Descending FlightAware ADS-B
Sat 03:42:12 PM 41.1660 28.3130 57° Northeast 339 390 22,100 -1,575 Descending FlightAware ADS-B
Sat 03:42:52 PM 41.1970 28.3810 59° Northeast 335 386 21,100 -1,516 Descending FlightAware ADS-B
Sat 03:43:47 PM 41.2000 28.4850 88° East 321 369 19,700 -1,569 Descending FlightAware ADS-B
Sat 03:43:57 PM 41.1900 28.4980 136° Southeast 317 365 19,400 -1,607 Descending FlightAware ADS-B
Sat 03:44:43 PM 41.1380 28.5410 148° Southeast 306 352 18,200 -1,624 Descending FlightAware ADS-B
Sat 03:45:22 PM 41.0860 28.5840 148° Southeast 305 351 17,100 -1,747 Descending FlightAware ADS-B
Sat 03:46:02 PM 41.0370 28.6230 149° Southeast 299 344 15,900 -1,465 Descending FlightAware ADS-B
Sat 03:46:48 PM 40.9870 28.6640 148° Southeast 287 330 15,000 -1,200 Descending FlightAware ADS-B
Sat 03:47:22 PM 40.9490 28.6940 149° Southeast 280 322 14,300 -1,326 Descending FlightAware ADS-B
Sat 03:48:14 PM 40.8910 28.7410 149° Southeast 266 306 13,100 -1,453 Descending FlightAware ADS-B
Sat 03:48:57 PM 40.8450 28.7760 150° Southeast 271 312 12,000 -1,459 Descending FlightAware ADS-B
Sat 03:49:28 PM 40.8080 28.7620 196° South 256 295 11,300 -1,440 Descending FlightAware ADS-B
Sat 03:49:47 PM 40.7960 28.7370 238° Southwest 257 296 10,800 -1,424 Descending FlightAware ADS-B
Sat 03:50:27 PM 40.7750 28.6780 245° Southwest 259 298 9,900 -1,292 Descending FlightAware ADS-B
Sat 03:50:52 PM 40.7640 28.6480 244° Southwest 260 299 9,400 -1,200 Descending FlightAware ADS-B
Sat 03:51:07 PM 40.7540 28.6220 243° Southwest 256 295 9,100 -1,304 Descending FlightAware ADS-B
Sat 03:51:38 PM 40.7380 28.5810 243° Southwest 254 292 8,400 -1,200 Descending FlightAware ADS-B
Sat 03:52:02 PM 40.7240 28.5470 241° Southwest 250 288 8,000 -490 Descending FlightAware ADS-B
Sat 03:52:27 PM 40.7110 28.5150 242° Southwest 254 292 8,000  Level FlightAware ADS-B
Sat 03:52:32 PM 40.7080 28.5080 241° Southwest 254 292 8,000  Level FlightAware ADS-B
Sat 03:53:07 PM 40.6890 28.4590 243° Southwest 255 293 8,000  Level FlightAware ADS-B
Sat 03:53:37 PM 40.6730 28.4170 243° Southwest 257 296 8,000  Level FlightAware ADS-B
Sat 03:53:58 PM 40.6630 28.3920 242° Southwest 258 297 8,000  Level FlightAware ADS-B
Sat 03:54:37 PM 40.6410 28.3350 243° Southwest 255 293 8,000  Level FlightAware ADS-B
Sat 03:55:07 PM 40.6250 28.2920 244° Southwest 256 295 8,000  Level FlightAware ADS-B
Sat 03:55:33 PM 40.6120 28.2590 243° Southwest 255 293 8,000  Level FlightAware ADS-B
Sat 03:56:02 PM 40.5950 28.2140 244° Southwest 254 292 8,000  Level FlightAware ADS-B
Sat 03:56:23 PM 40.5830 28.1850 241° Southwest 255 293 8,000  Level FlightAware ADS-B
Sat 03:56:52 PM 40.5680 28.1440 244° Southwest 255 293 8,000  Level FlightAware ADS-B
Sat 03:57:07 PM 40.5600 28.1240 242° Southwest 256 295 8,000  Level FlightAware ADS-B
Sat 03:57:17 PM 40.5540 28.1100 241° Southwest 256 295 8,000  Level FlightAware ADS-B
Sat 03:57:47 PM 40.5380 28.0680 243° Southwest 258 297 8,000  Level FlightAware ADS-B
Sat 03:58:12 PM 40.5260 28.0390 241° Southwest 258 297 8,000 -218 Level FlightAware ADS-B
Sat 03:58:42 PM 40.5090 27.9940 244° Southwest 261 300 7,800 -643 Descending FlightAware ADS-B
Sat 03:59:08 PM 40.4950 27.9590 242° Southwest 252 290 7,400 -1,091 Descending FlightAware ADS-B
Sat 03:59:37 PM 40.4820 27.9170 248° West 250 288 6,800 -1,100 Descending FlightAware ADS-B
Sat 04:00:08 PM 40.4990 27.8770 299° West 234 269 6,300 -913 Descending FlightAware ADS-B
Sat 04:00:23 PM 40.5110 27.8730 346° North 223 257 6,100 -923 Descending FlightAware ADS-B
Sat 04:00:47 PM 40.5360 27.8770 North 215 247 5,700 -840 Descending FlightAware ADS-B
Sat 04:01:13 PM 40.5540 27.9000 44° Northeast 223 257 5,400 -913 Descending FlightAware ADS-B
Sat 04:01:33 PM 40.5680 27.9250 54° Northeast 223 257 5,000 -735 Descending FlightAware ADS-B
Sat 04:02:02 PM 40.5840 27.9610 60° Northeast 227 261 4,800 -375 Descending FlightAware ADS-B
Sat 04:02:37 PM 40.6030 28.0030 59° Northeast 225 259 4,600 -436 Descending FlightAware ADS-B
Sat 04:02:57 PM 40.6120 28.0220 58° Northeast 224 258 4,400 -536 Descending FlightAware ADS-B
Sat 04:03:33 PM 40.6320 28.0670 60° Northeast 221 254 4,100 -400 Descending FlightAware ADS-B
Sat 04:03:57 PM 40.6440 28.0930 59° Northeast 220 253 4,000 -111 Descending FlightAware ADS-B
Sat 04:04:27 PM 40.6600 28.1290 60° Northeast 219 252 4,000  Level FlightAware ADS-B
Sat 04:04:53 PM 40.6720 28.1560 60° Northeast 218 251 4,000  Level FlightAware ADS-B
Sat 04:05:08 PM 40.6810 28.1760 59° Northeast 218 251 4,000  Level FlightAware ADS-B
Sat 04:05:37 PM 40.6970 28.2110 59° Northeast 218 251 4,000  Level FlightAware ADS-B
Sat 04:06:07 PM 40.7120 28.2460 61° Northeast 219 252 4,000  Level FlightAware ADS-B
Sat 04:06:28 PM 40.7220 28.2670 58° Northeast 213 245 4,000  Level FlightAware ADS-B
Sat 04:06:52 PM 40.7340 28.2950 61° Northeast 213 245 4,000  Level FlightAware ADS-B
Sat 04:07:18 PM 40.7480 28.3250 58° Northeast 218 251 4,000  Level FlightAware ADS-B
Sat 04:07:57 PM 40.7680 28.3700 60° Northeast 219 252 4,000  Level FlightAware ADS-B
Sat 04:08:22 PM 40.7800 28.3990 61° Northeast 190 219 4,000  Level FlightAware ADS-B
Sat 04:08:37 PM 40.7870 28.4130 57° Northeast 169 194 4,000  Level FlightAware ADS-B
Sat 04:09:02 PM 40.7950 28.4320 61° Northeast 163 188 4,000  Level FlightAware ADS-B
Sat 04:09:32 PM 40.8050 28.4590 64° Northeast 157 181 4,000  Level FlightAware ADS-B
Sat 04:09:58 PM 40.8120 28.4780 64° Northeast 143 165 4,000  Level FlightAware ADS-B
Sat 04:10:12 PM 40.8150 28.4880 68° East 145 167 4,000  Level FlightAware ADS-B
Sat 04:10:42 PM 40.8260 28.5120 59° Northeast 144 166 4,000  Level FlightAware ADS-B
Sat 04:10:57 PM 40.8320 28.5260 60° Northeast 144 166 4,000  Level FlightAware ADS-B
Sat 04:11:37 PM 40.8470 28.5550 56° Northeast 142 163 4,000  Level FlightAware ADS-B
Sat 04:12:08 PM 40.8560 28.5740 58° Northeast 137 158 4,000 -200 Level FlightAware ADS-B
Sat 04:12:37 PM 40.8660 28.5960 59° Northeast 137 158 3,800 -612 Descending FlightAware ADS-B
Sat 04:12:57 PM 40.8740 28.6140 60° Northeast 134 154 3,500 -913 Descending FlightAware ADS-B
Sat 04:13:23 PM 40.8830 28.6330 58° Northeast 149 171 3,100 -857 Descending FlightAware ADS-B
Sat 04:13:32 PM 40.8870 28.6410 57° Northeast 152 175 3,000 -778 Descending FlightAware ADS-B
Sat 04:14:17 PM 40.9040 28.6760 57° Northeast 152 175 2,400 -800 Descending FlightAware ADS-B
Sat 04:14:32 PM 40.9090 28.6880 61° Northeast 153 176 2,200 -717 Descending FlightAware ADS-B
Sat 04:15:49 PM 40.9350 28.7450 59° Northeast 133 153 1,300 -709 Descending FlightAware ADS-B
Sat 04:16:22 PM 40.9460 28.7670 56° Northeast 132 152 900 -750 Descending FlightAware ADS-B
Sat 04:16:37 PM 40.9520 28.7800 59° Northeast 134 154 700 -500 Descending FlightAware ADS-B
Sat 04:17:22 PM 40.9650 28.8100 60° Northeast 134 154 400 -400 Descending FlightAware ADS-B
Sat 04:18:42 PM 40.9760 28.8280 51° Northeast 14 16 -300 Descending FlightAware ADS-B
Sat 04:19:18 PM 40.9770 28.8270 323° Northwest 5 6  Level FlightAware ADS-B
Sat 04:19:37 PM 40.9770 28.8260 270° West 8 9  Level FlightAware ADS-B
Sat 04:20:02 PM 40.9760 28.8250 217° Southwest 9 10  Level FlightAware ADS-B
Sat 04:21:02 PM 40.9750 28.8220 246° West 6 7  Level FlightAware ADS-B
Sat 04:23:00 PM 40.9769 28.8211 340° North  Level Estimated
Sat 04:24:00 PM 40.9769 28.8211 21° North  Level Estimated
Sat 04:25:00 PM 40.9769 28.8211 21° North  Level Estimated
Sat 04:26:00 PM 40.9769 28.8211 21° North  Level Estimated
Sat 04:27:00 PM 40.9769 28.8211 21° North  Level Estimated
Sat 04:28:00 PM 40.9769 28.8211 21° North  Level Estimated
Sat 04:29:00 PM 40.9769 28.8211 21° North  Level Estimated
Sat 04:30:00 PM 40.9769 28.8211 21° North  Level Estimated

Login

Don't have an account? Register now (free) for customized features, flight alerts, and more!